sensor_id;sensor_type;location;lat;lon;timestamp;temperature;humidity
37456;DHT22;23316;50.718;7.328;2023-06-01T00:02:24;19.90;43.40
37456;DHT22;23316;50.718;7.328;2023-06-01T00:04:53;19.90;43.40
37456;DHT22;23316;50.718;7.328;2023-06-01T00:07:20;19.90;43.50
37456;DHT22;23316;50.718;7.328;2023-06-01T00:09:49;19.80;43.50
37456;DHT22;23316;50.718;7.328;2023-06-01T00:12:17;19.80;43.60
37456;DHT22;23316;50.718;7.328;2023-06-01T00:14:44;19.80;43.80
37456;DHT22;23316;50.718;7.328;2023-06-01T00:17:11;19.80;44.00
37456;DHT22;23316;50.718;7.328;2023-06-01T00:19:39;19.80;44.00
37456;DHT22;23316;50.718;7.328;2023-06-01T00:22:07;19.70;44.00
37456;DHT22;23316;50.718;7.328;2023-06-01T00:24:35;19.70;44.00
37456;DHT22;23316;50.718;7.328;2023-06-01T00:27:02;19.70;44.00
37456;DHT22;23316;50.718;7.328;2023-06-01T00:29:31;19.70;44.10
37456;DHT22;23316;50.718;7.328;2023-06-01T00:31:58;19.60;44.00
37456;DHT22;23316;50.718;7.328;2023-06-01T00:34:25;19.60;44.30
37456;DHT22;23316;50.718;7.328;2023-06-01T00:36:53;19.60;44.50
37456;DHT22;23316;50.718;7.328;2023-06-01T00:39:21;19.50;44.40
37456;DHT22;23316;50.718;7.328;2023-06-01T00:41:49;19.40;44.70
37456;DHT22;23316;50.718;7.328;2023-06-01T00:44:16;19.30;44.60
37456;DHT22;23316;50.718;7.328;2023-06-01T00:46:43;19.30;44.70
37456;DHT22;23316;50.718;7.328;2023-06-01T00:49:10;19.20;44.70
37456;DHT22;23316;50.718;7.328;2023-06-01T00:51:38;19.10;44.80
37456;DHT22;23316;50.718;7.328;2023-06-01T00:54:07;19.10;44.90
37456;DHT22;23316;50.718;7.328;2023-06-01T00:56:36;19.00;45.00
37456;DHT22;23316;50.718;7.328;2023-06-01T00:59:03;19.00;45.10
37456;DHT22;23316;50.718;7.328;2023-06-01T01:01:30;18.90;45.20
37456;DHT22;23316;50.718;7.328;2023-06-01T01:03:59;18.90;45.40
37456;DHT22;23316;50.718;7.328;2023-06-01T01:06:37;18.90;45.50
37456;DHT22;23316;50.718;7.328;2023-06-01T01:09:16;18.80;45.60
37456;DHT22;23316;50.718;7.328;2023-06-01T01:11:51;18.80;45.80
37456;DHT22;23316;50.718;7.328;2023-06-01T01:14:22;18.80;45.80
37456;DHT22;23316;50.718;7.328;2023-06-01T01:16:57;18.80;45.90
37456;DHT22;23316;50.718;7.328;2023-06-01T01:19:52;18.70;45.90
37456;DHT22;23316;50.718;7.328;2023-06-01T01:25:35;18.70;45.70
37456;DHT22;23316;50.718;7.328;2023-06-01T01:28:23;18.70;45.70
37456;DHT22;23316;50.718;7.328;2023-06-01T01:30:53;18.60;45.80
37456;DHT22;23316;50.718;7.328;2023-06-01T01:33:21;18.60;45.70
37456;DHT22;23316;50.718;7.328;2023-06-01T01:35:49;18.60;45.90
37456;DHT22;23316;50.718;7.328;2023-06-01T01:38:16;18.50;46.30
37456;DHT22;23316;50.718;7.328;2023-06-01T01:40:44;18.40;46.40
37456;DHT22;23316;50.718;7.328;2023-06-01T01:43:11;18.40;46.50
37456;DHT22;23316;50.718;7.328;2023-06-01T01:45:40;18.20;46.70
37456;DHT22;23316;50.718;7.328;2023-06-01T01:48:11;18.20;46.80
37456;DHT22;23316;50.718;7.328;2023-06-01T01:50:46;18.10;47.00
37456;DHT22;23316;50.718;7.328;2023-06-01T01:53:16;18.00;47.00
37456;DHT22;23316;50.718;7.328;2023-06-01T01:55:46;18.00;47.00
37456;DHT22;23316;50.718;7.328;2023-06-01T01:58:15;17.90;47.20
37456;DHT22;23316;50.718;7.328;2023-06-01T02:00:44;17.90;47.20
37456;DHT22;23316;50.718;7.328;2023-06-01T02:03:15;17.90;47.40
37456;DHT22;23316;50.718;7.328;2023-06-01T02:05:43;17.90;47.50
37456;DHT22;23316;50.718;7.328;2023-06-01T02:08:10;17.80;47.50
37456;DHT22;23316;50.718;7.328;2023-06-01T02:10:38;17.80;47.60
37456;DHT22;23316;50.718;7.328;2023-06-01T02:13:06;17.80;47.60
37456;DHT22;23316;50.718;7.328;2023-06-01T02:15:34;17.80;47.70
37456;DHT22;23316;50.718;7.328;2023-06-01T02:18:02;17.80;47.80
37456;DHT22;23316;50.718;7.328;2023-06-01T02:20:29;17.70;47.90
37456;DHT22;23316;50.718;7.328;2023-06-01T02:22:57;17.70;48.00
37456;DHT22;23316;50.718;7.328;2023-06-01T02:25:24;17.70;48.00
37456;DHT22;23316;50.718;7.328;2023-06-01T02:27:51;17.70;48.00
37456;DHT22;23316;50.718;7.328;2023-06-01T02:30:18;17.70;48.10
37456;DHT22;23316;50.718;7.328;2023-06-01T02:32:46;17.70;48.20
37456;DHT22;23316;50.718;7.328;2023-06-01T02:35:15;17.70;48.20
37456;DHT22;23316;50.718;7.328;2023-06-01T02:37:43;17.60;48.20
37456;DHT22;23316;50.718;7.328;2023-06-01T02:40:10;17.60;48.20
37456;DHT22;23316;50.718;7.328;2023-06-01T02:42:38;17.60;48.30
37456;DHT22;23316;50.718;7.328;2023-06-01T02:45:06;17.60;48.40
37456;DHT22;23316;50.718;7.328;2023-06-01T02:47:35;17.50;48.40
37456;DHT22;23316;50.718;7.328;2023-06-01T02:50:04;17.50;48.40
37456;DHT22;23316;50.718;7.328;2023-06-01T02:52:33;17.50;48.50
37456;DHT22;23316;50.718;7.328;2023-06-01T02:55:01;17.50;48.60
37456;DHT22;23316;50.718;7.328;2023-06-01T02:57:28;17.50;48.60
37456;DHT22;23316;50.718;7.328;2023-06-01T02:59:55;17.40;48.70
37456;DHT22;23316;50.718;7.328;2023-06-01T03:02:22;17.40;48.70
37456;DHT22;23316;50.718;7.328;2023-06-01T03:04:50;17.40;48.70
37456;DHT22;23316;50.718;7.328;2023-06-01T03:07:17;17.40;48.80
37456;DHT22;23316;50.718;7.328;2023-06-01T03:09:45;17.40;49.00
37456;DHT22;23316;50.718;7.328;2023-06-01T03:12:13;17.40;49.00
37456;DHT22;23316;50.718;7.328;2023-06-01T03:14:40;17.30;49.00
37456;DHT22;23316;50.718;7.328;2023-06-01T03:17:07;17.30;49.20
37456;DHT22;23316;50.718;7.328;2023-06-01T03:19:35;17.30;49.20
37456;DHT22;23316;50.718;7.328;2023-06-01T03:22:02;17.30;49.20
37456;DHT22;23316;50.718;7.328;2023-06-01T03:24:29;17.30;49.20
37456;DHT22;23316;50.718;7.328;2023-06-01T03:26:59;17.30;49.30
37456;DHT22;23316;50.718;7.328;2023-06-01T03:29:27;17.30;49.30
37456;DHT22;23316;50.718;7.328;2023-06-01T03:31:55;17.20;49.20
37456;DHT22;23316;50.718;7.328;2023-06-01T03:37:43;17.20;49.40
37456;DHT22;23316;50.718;7.328;2023-06-01T03:40:11;17.20;49.20
37456;DHT22;23316;50.718;7.328;2023-06-01T03:42:40;17.10;49.30
37456;DHT22;23316;50.718;7.328;2023-06-01T03:45:09;17.10;49.40
37456;DHT22;23316;50.718;7.328;2023-06-01T03:47:37;17.10;49.50
37456;DHT22;23316;50.718;7.328;2023-06-01T03:50:05;17.10;49.50
37456;DHT22;23316;50.718;7.328;2023-06-01T03:52:34;17.10;49.70
37456;DHT22;23316;50.718;7.328;2023-06-01T03:55:03;17.10;49.70
37456;DHT22;23316;50.718;7.328;2023-06-01T03:57:34;17.10;50.10
37456;DHT22;23316;50.718;7.328;2023-06-01T04:00:03;17.00;50.10
37456;DHT22;23316;50.718;7.328;2023-06-01T04:02:46;17.00;50.40
37456;DHT22;23316;50.718;7.328;2023-06-01T04:05:15;16.90;50.40
37456;DHT22;23316;50.718;7.328;2023-06-01T04:07:44;16.80;50.40
37456;DHT22;23316;50.718;7.328;2023-06-01T04:10:12;16.70;50.60
37456;DHT22;23316;50.718;7.328;2023-06-01T04:12:40;16.70;50.70
37456;DHT22;23316;50.718;7.328;2023-06-01T04:15:11;16.60;51.10
37456;DHT22;23316;50.718;7.328;2023-06-01T04:17:39;16.50;51.80
37456;DHT22;23316;50.718;7.328;2023-06-01T04:20:08;16.50;52.10
37456;DHT22;23316;50.718;7.328;2023-06-01T04:22:36;16.50;52.20
37456;DHT22;23316;50.718;7.328;2023-06-01T04:25:06;16.50;52.10
37456;DHT22;23316;50.718;7.328;2023-06-01T04:27:34;16.50;52.20
37456;DHT22;23316;50.718;7.328;2023-06-01T04:30:04;16.50;52.10
37456;DHT22;23316;50.718;7.328;2023-06-01T04:32:35;16.50;52.10
37456;DHT22;23316;50.718;7.328;2023-06-01T04:35:04;16.50;52.20
37456;DHT22;23316;50.718;7.328;2023-06-01T04:37:32;16.60;52.30
37456;DHT22;23316;50.718;7.328;2023-06-01T04:40:00;16.60;52.40
37456;DHT22;23316;50.718;7.328;2023-06-01T04:42:32;16.70;52.50
37456;DHT22;23316;50.718;7.328;2023-06-01T04:45:00;16.70;52.50
37456;DHT22;23316;50.718;7.328;2023-06-01T04:47:30;16.70;52.60
37456;DHT22;23316;50.718;7.328;2023-06-01T04:49:59;16.70;52.60
37456;DHT22;23316;50.718;7.328;2023-06-01T04:52:26;16.70;53.00
37456;DHT22;23316;50.718;7.328;2023-06-01T04:54:54;16.70;53.00
37456;DHT22;23316;50.718;7.328;2023-06-01T04:57:27;16.70;53.30
37456;DHT22;23316;50.718;7.328;2023-06-01T05:00:01;16.70;53.40
37456;DHT22;23316;50.718;7.328;2023-06-01T05:02:32;16.70;53.50
37456;DHT22;23316;50.718;7.328;2023-06-01T05:05:00;16.70;53.70
37456;DHT22;23316;50.718;7.328;2023-06-01T05:07:28;16.80;53.70
37456;DHT22;23316;50.718;7.328;2023-06-01T05:09:55;16.80;54.10
37456;DHT22;23316;50.718;7.328;2023-06-01T05:12:22;16.80;53.90
37456;DHT22;23316;50.718;7.328;2023-06-01T05:14:49;16.80;53.90
37456;DHT22;23316;50.718;7.328;2023-06-01T05:17:17;16.90;53.90
37456;DHT22;23316;50.718;7.328;2023-06-01T05:19:44;16.90;54.00
37456;DHT22;23316;50.718;7.328;2023-06-01T05:22:13;17.00;53.90
37456;DHT22;23316;50.718;7.328;2023-06-01T05:24:40;17.00;53.90
37456;DHT22;23316;50.718;7.328;2023-06-01T05:27:07;17.00;53.90
37456;DHT22;23316;50.718;7.328;2023-06-01T05:29:34;17.00;53.90
37456;DHT22;23316;50.718;7.328;2023-06-01T05:32:02;17.10;54.10
37456;DHT22;23316;50.718;7.328;2023-06-01T05:34:29;17.10;54.30
37456;DHT22;23316;50.718;7.328;2023-06-01T05:36:57;17.20;54.30
37456;DHT22;23316;50.718;7.328;2023-06-01T05:49:58;17.30;54.30
37456;DHT22;23316;50.718;7.328;2023-06-01T05:52:25;17.40;54.10
37456;DHT22;23316;50.718;7.328;2023-06-01T05:54:52;17.40;53.90
37456;DHT22;23316;50.718;7.328;2023-06-01T05:57:20;17.40;54.00
37456;DHT22;23316;50.718;7.328;2023-06-01T05:59:47;17.50;53.90
37456;DHT22;23316;50.718;7.328;2023-06-01T06:02:14;17.50;53.90
37456;DHT22;23316;50.718;7.328;2023-06-01T06:04:41;17.50;54.10
37456;DHT22;23316;50.718;7.328;2023-06-01T06:07:11;17.60;54.30
37456;DHT22;23316;50.718;7.328;2023-06-01T06:09:39;17.60;55.00
37456;DHT22;23316;50.718;7.328;2023-06-01T06:12:07;17.70;54.40
37456;DHT22;23316;50.718;7.328;2023-06-01T06:14:34;17.70;54.30
37456;DHT22;23316;50.718;7.328;2023-06-01T06:17:01;17.80;54.10
37456;DHT22;23316;50.718;7.328;2023-06-01T06:19:29;17.80;54.20
37456;DHT22;23316;50.718;7.328;2023-06-01T06:21:56;17.80;54.10
37456;DHT22;23316;50.718;7.328;2023-06-01T06:24:25;17.90;53.90
37456;DHT22;23316;50.718;7.328;2023-06-01T06:26:52;17.90;53.90
37456;DHT22;23316;50.718;7.328;2023-06-01T06:29:19;17.90;54.00
37456;DHT22;23316;50.718;7.328;2023-06-01T06:31:46;18.00;54.00
37456;DHT22;23316;50.718;7.328;2023-06-01T06:34:15;18.00;54.30
37456;DHT22;23316;50.718;7.328;2023-06-01T06:36:42;18.10;54.30
37456;DHT22;23316;50.718;7.328;2023-06-01T06:39:09;18.10;54.10
37456;DHT22;23316;50.718;7.328;2023-06-01T06:41:39;18.20;54.00
37456;DHT22;23316;50.718;7.328;2023-06-01T06:44:07;18.20;54.20
37456;DHT22;23316;50.718;7.328;2023-06-01T06:46:34;18.30;54.80
37456;DHT22;23316;50.718;7.328;2023-06-01T06:49:01;18.30;54.20
37456;DHT22;23316;50.718;7.328;2023-06-01T06:51:29;18.30;54.50
37456;DHT22;23316;50.718;7.328;2023-06-01T06:53:56;18.40;53.90
37456;DHT22;23316;50.718;7.328;2023-06-01T06:56:28;18.40;54.00
37456;DHT22;23316;50.718;7.328;2023-06-01T06:58:56;18.50;53.90
37456;DHT22;23316;50.718;7.328;2023-06-01T07:01:23;18.60;53.90
37456;DHT22;23316;50.718;7.328;2023-06-01T07:03:52;18.60;54.10
37456;DHT22;23316;50.718;7.328;2023-06-01T07:06:21;18.60;53.90
37456;DHT22;23316;50.718;7.328;2023-06-01T07:08:48;18.70;53.90
37456;DHT22;23316;50.718;7.328;2023-06-01T07:11:16;18.70;53.80
37456;DHT22;23316;50.718;7.328;2023-06-01T07:13:44;18.80;53.80
37456;DHT22;23316;50.718;7.328;2023-06-01T07:16:12;18.80;53.60
37456;DHT22;23316;50.718;7.328;2023-06-01T07:18:39;18.90;53.50
37456;DHT22;23316;50.718;7.328;2023-06-01T07:21:06;18.90;53.50
37456;DHT22;23316;50.718;7.328;2023-06-01T07:23:34;19.00;53.40
37456;DHT22;23316;50.718;7.328;2023-06-01T07:26:01;18.90;53.20
37456;DHT22;23316;50.718;7.328;2023-06-01T07:28:29;19.00;53.40
37456;DHT22;23316;50.718;7.328;2023-06-01T07:30:56;19.00;53.20
37456;DHT22;23316;50.718;7.328;2023-06-01T07:33:24;19.00;53.30
37456;DHT22;23316;50.718;7.328;2023-06-01T07:35:52;19.10;53.20
37456;DHT22;23316;50.718;7.328;2023-06-01T07:38:20;19.10;53.20
37456;DHT22;23316;50.718;7.328;2023-06-01T07:40:47;19.10;53.10
37456;DHT22;23316;50.718;7.328;2023-06-01T07:43:14;19.20;53.20
37456;DHT22;23316;50.718;7.328;2023-06-01T07:45:42;19.30;53.10
37456;DHT22;23316;50.718;7.328;2023-06-01T07:48:09;19.30;52.50
37456;DHT22;23316;50.718;7.328;2023-06-01T07:50:37;19.40;52.30
37456;DHT22;23316;50.718;7.328;2023-06-01T07:53:04;19.40;52.60
37456;DHT22;23316;50.718;7.328;2023-06-01T07:55:32;19.40;52.20
37456;DHT22;23316;50.718;7.328;2023-06-01T07:57:59;19.50;52.50
37456;DHT22;23316;50.718;7.328;2023-06-01T08:00:26;19.50;52.50
37456;DHT22;23316;50.718;7.328;2023-06-01T08:02:54;19.50;52.50
37456;DHT22;23316;50.718;7.328;2023-06-01T08:05:21;19.60;52.30
37456;DHT22;23316;50.718;7.328;2023-06-01T08:07:50;19.60;52.30
37456;DHT22;23316;50.718;7.328;2023-06-01T08:10:18;19.70;52.30
37456;DHT22;23316;50.718;7.328;2023-06-01T08:12:45;19.70;52.10
37456;DHT22;23316;50.718;7.328;2023-06-01T08:15:13;19.80;52.10
37456;DHT22;23316;50.718;7.328;2023-06-01T08:17:41;19.80;52.10
37456;DHT22;23316;50.718;7.328;2023-06-01T08:20:10;19.90;52.30
37456;DHT22;23316;50.718;7.328;2023-06-01T08:22:38;19.90;52.20
37456;DHT22;23316;50.718;7.328;2023-06-01T08:25:08;19.90;52.00
37456;DHT22;23316;50.718;7.328;2023-06-01T08:27:35;20.00;51.80
37456;DHT22;23316;50.718;7.328;2023-06-01T08:30:03;20.00;51.70
37456;DHT22;23316;50.718;7.328;2023-06-01T08:32:31;20.10;51.90
37456;DHT22;23316;50.718;7.328;2023-06-01T08:34:58;20.00;51.90
37456;DHT22;23316;50.718;7.328;2023-06-01T08:37:26;20.10;51.50
37456;DHT22;23316;50.718;7.328;2023-06-01T08:39:53;20.10;51.70
37456;DHT22;23316;50.718;7.328;2023-06-01T08:42:25;20.10;51.40
37456;DHT22;23316;50.718;7.328;2023-06-01T08:44:57;20.20;51.70
37456;DHT22;23316;50.718;7.328;2023-06-01T08:47:25;20.20;51.60
37456;DHT22;23316;50.718;7.328;2023-06-01T08:49:52;20.20;51.60
37456;DHT22;23316;50.718;7.328;2023-06-01T08:52:22;20.30;52.00
37456;DHT22;23316;50.718;7.328;2023-06-01T08:54:50;20.30;51.90
37456;DHT22;23316;50.718;7.328;2023-06-01T08:57:17;20.40;51.70
37456;DHT22;23316;50.718;7.328;2023-06-01T08:59:47;20.40;51.70
37456;DHT22;23316;50.718;7.328;2023-06-01T09:02:14;20.40;51.30
37456;DHT22;23316;50.718;7.328;2023-06-01T09:04:42;20.40;51.10
37456;DHT22;23316;50.718;7.328;2023-06-01T09:07:11;20.50;51.40
37456;DHT22;23316;50.718;7.328;2023-06-01T09:09:38;20.50;51.20
37456;DHT22;23316;50.718;7.328;2023-06-01T09:12:20;20.50;51.00
37456;DHT22;23316;50.718;7.328;2023-06-01T09:14:49;20.50;51.00
37456;DHT22;23316;50.718;7.328;2023-06-01T09:17:21;20.60;50.90
37456;DHT22;23316;50.718;7.328;2023-06-01T09:19:52;20.60;51.10
37456;DHT22;23316;50.718;7.328;2023-06-01T09:22:20;20.60;50.70
37456;DHT22;23316;50.718;7.328;2023-06-01T09:24:56;20.60;50.50
37456;DHT22;23316;50.718;7.328;2023-06-01T09:27:26;20.60;50.90
37456;DHT22;23316;50.718;7.328;2023-06-01T09:29:56;20.60;50.80
37456;DHT22;23316;50.718;7.328;2023-06-01T09:32:25;20.70;50.40
37456;DHT22;23316;50.718;7.328;2023-06-01T09:34:52;20.60;50.50
37456;DHT22;23316;50.718;7.328;2023-06-01T09:37:20;20.70;50.70
37456;DHT22;23316;50.718;7.328;2023-06-01T09:39:48;20.70;50.80
37456;DHT22;23316;50.718;7.328;2023-06-01T09:42:15;20.70;50.90
37456;DHT22;23316;50.718;7.328;2023-06-01T09:44:45;20.70;50.80
37456;DHT22;23316;50.718;7.328;2023-06-01T09:47:14;20.80;50.60
37456;DHT22;23316;50.718;7.328;2023-06-01T09:49:43;20.80;50.60
37456;DHT22;23316;50.718;7.328;2023-06-01T09:52:16;20.90;50.90
37456;DHT22;23316;50.718;7.328;2023-06-01T09:54:52;20.90;51.00
37456;DHT22;23316;50.718;7.328;2023-06-01T10:00:38;21.00;50.50
37456;DHT22;23316;50.718;7.328;2023-06-01T10:03:11;21.00;50.20
37456;DHT22;23316;50.718;7.328;2023-06-01T10:05:39;21.00;50.60
37456;DHT22;23316;50.718;7.328;2023-06-01T10:08:06;21.00;50.00
37456;DHT22;23316;50.718;7.328;2023-06-01T10:10:33;21.00;50.10
37456;DHT22;23316;50.718;7.328;2023-06-01T10:13:01;21.00;49.70
37456;DHT22;23316;50.718;7.328;2023-06-01T10:15:28;21.10;49.80
37456;DHT22;23316;50.718;7.328;2023-06-01T10:17:55;21.00;49.90
37456;DHT22;23316;50.718;7.328;2023-06-01T10:20:24;21.10;50.20
37456;DHT22;23316;50.718;7.328;2023-06-01T10:22:52;21.10;50.10
37456;DHT22;23316;50.718;7.328;2023-06-01T10:25:23;21.10;49.60
37456;DHT22;23316;50.718;7.328;2023-06-01T10:27:55;21.20;49.70
37456;DHT22;23316;50.718;7.328;2023-06-01T10:30:24;21.20;49.50
37456;DHT22;23316;50.718;7.328;2023-06-01T10:32:51;21.20;49.30
37456;DHT22;23316;50.718;7.328;2023-06-01T10:35:52;21.20;49.30
37456;DHT22;23316;50.718;7.328;2023-06-01T10:38:26;21.20;49.30
37456;DHT22;23316;50.718;7.328;2023-06-01T10:43:40;21.30;49.30
37456;DHT22;23316;50.718;7.328;2023-06-01T10:46:34;21.30;49.30
37456;DHT22;23316;50.718;7.328;2023-06-01T10:49:03;21.30;49.60
37456;DHT22;23316;50.718;7.328;2023-06-01T10:51:32;21.40;49.10
37456;DHT22;23316;50.718;7.328;2023-06-01T10:54:27;21.40;49.20
37456;DHT22;23316;50.718;7.328;2023-06-01T10:57:23;21.40;48.90
37456;DHT22;23316;50.718;7.328;2023-06-01T11:00:12;21.50;48.60
37456;DHT22;23316;50.718;7.328;2023-06-01T11:02:48;21.50;48.30
37456;DHT22;23316;50.718;7.328;2023-06-01T11:05:39;21.60;48.20
37456;DHT22;23316;50.718;7.328;2023-06-01T11:11:10;21.70;47.60
37456;DHT22;23316;50.718;7.328;2023-06-01T11:13:38;21.70;47.70
37456;DHT22;23316;50.718;7.328;2023-06-01T11:16:29;21.70;47.40
37456;DHT22;23316;50.718;7.328;2023-06-01T11:18:59;21.70;46.70
37456;DHT22;23316;50.718;7.328;2023-06-01T11:21:27;21.70;46.70
37456;DHT22;23316;50.718;7.328;2023-06-01T11:23:57;21.70;46.50
37456;DHT22;23316;50.718;7.328;2023-06-01T11:26:29;21.80;45.90
37456;DHT22;23316;50.718;7.328;2023-06-01T11:29:12;21.80;45.90
37456;DHT22;23316;50.718;7.328;2023-06-01T11:31:44;21.80;45.70
37456;DHT22;23316;50.718;7.328;2023-06-01T11:34:13;21.90;46.10
37456;DHT22;23316;50.718;7.328;2023-06-01T11:36:43;21.90;45.00
37456;DHT22;23316;50.718;7.328;2023-06-01T11:39:19;21.90;45.40
37456;DHT22;23316;50.718;7.328;2023-06-01T11:41:49;21.90;45.00
37456;DHT22;23316;50.718;7.328;2023-06-01T11:44:17;21.90;44.30
37456;DHT22;23316;50.718;7.328;2023-06-01T11:46:50;21.90;43.90
37456;DHT22;23316;50.718;7.328;2023-06-01T11:49:18;21.90;45.00
37456;DHT22;23316;50.718;7.328;2023-06-01T11:51:46;22.00;44.80
37456;DHT22;23316;50.718;7.328;2023-06-01T11:54:13;22.00;44.50
37456;DHT22;23316;50.718;7.328;2023-06-01T11:56:41;22.00;44.40
37456;DHT22;23316;50.718;7.328;2023-06-01T11:59:09;22.10;43.70
37456;DHT22;23316;50.718;7.328;2023-06-01T12:01:42;22.10;43.00
37456;DHT22;23316;50.718;7.328;2023-06-01T12:04:12;22.20;43.60
37456;DHT22;23316;50.718;7.328;2023-06-01T12:06:39;22.20;43.50
37456;DHT22;23316;50.718;7.328;2023-06-01T12:09:07;22.20;43.40
37456;DHT22;23316;50.718;7.328;2023-06-01T12:11:34;22.30;43.40
37456;DHT22;23316;50.718;7.328;2023-06-01T12:14:05;22.30;42.70
37456;DHT22;23316;50.718;7.328;2023-06-01T12:16:53;22.40;41.80
37456;DHT22;23316;50.718;7.328;2023-06-01T12:19:21;22.40;41.10
37456;DHT22;23316;50.718;7.328;2023-06-01T12:21:49;22.50;41.10
37456;DHT22;23316;50.718;7.328;2023-06-01T12:24:18;22.40;40.90
37456;DHT22;23316;50.718;7.328;2023-06-01T12:26:45;22.40;40.50
37456;DHT22;23316;50.718;7.328;2023-06-01T12:29:14;22.50;40.40
37456;DHT22;23316;50.718;7.328;2023-06-01T12:31:52;22.50;41.60
37456;DHT22;23316;50.718;7.328;2023-06-01T12:34:20;22.50;41.50
37456;DHT22;23316;50.718;7.328;2023-06-01T12:36:47;22.60;40.90
37456;DHT22;23316;50.718;7.328;2023-06-01T12:39:14;22.60;41.70
37456;DHT22;23316;50.718;7.328;2023-06-01T12:41:48;22.70;41.20
37456;DHT22;23316;50.718;7.328;2023-06-01T12:44:21;22.70;39.70
37456;DHT22;23316;50.718;7.328;2023-06-01T12:46:56;22.80;39.60
37456;DHT22;23316;50.718;7.328;2023-06-01T12:49:24;22.90;39.20
37456;DHT22;23316;50.718;7.328;2023-06-01T12:51:51;22.90;39.60
37456;DHT22;23316;50.718;7.328;2023-06-01T12:54:19;22.90;40.00
37456;DHT22;23316;50.718;7.328;2023-06-01T12:56:47;22.90;40.20
37456;DHT22;23316;50.718;7.328;2023-06-01T12:59:15;23.00;39.40
37456;DHT22;23316;50.718;7.328;2023-06-01T13:01:44;23.00;39.40
37456;DHT22;23316;50.718;7.328;2023-06-01T13:04:11;23.10;39.90
37456;DHT22;23316;50.718;7.328;2023-06-01T13:06:38;23.10;39.80
37456;DHT22;23316;50.718;7.328;2023-06-01T13:09:05;23.20;39.30
37456;DHT22;23316;50.718;7.328;2023-06-01T13:11:33;23.20;39.30
37456;DHT22;23316;50.718;7.328;2023-06-01T13:14:01;23.30;39.30
37456;DHT22;23316;50.718;7.328;2023-06-01T13:16:28;23.30;38.30
37456;DHT22;23316;50.718;7.328;2023-06-01T13:18:57;23.30;38.60
37456;DHT22;23316;50.718;7.328;2023-06-01T13:21:24;23.40;38.90
37456;DHT22;23316;50.718;7.328;2023-06-01T13:23:52;23.40;39.10
37456;DHT22;23316;50.718;7.328;2023-06-01T13:26:19;23.50;39.50
37456;DHT22;23316;50.718;7.328;2023-06-01T13:28:48;23.50;38.20
37456;DHT22;23316;50.718;7.328;2023-06-01T13:31:15;23.50;38.00
37456;DHT22;23316;50.718;7.328;2023-06-01T13:33:42;23.60;37.40
37456;DHT22;23316;50.718;7.328;2023-06-01T13:36:11;23.60;37.80
37456;DHT22;23316;50.718;7.328;2023-06-01T13:38:38;23.60;37.40
37456;DHT22;23316;50.718;7.328;2023-06-01T13:41:06;23.70;37.90
37456;DHT22;23316;50.718;7.328;2023-06-01T13:43:34;23.70;38.80
37456;DHT22;23316;50.718;7.328;2023-06-01T13:46:03;23.70;38.20
37456;DHT22;23316;50.718;7.328;2023-06-01T13:48:33;23.80;37.90
37456;DHT22;23316;50.718;7.328;2023-06-01T13:51:00;23.80;37.10
37456;DHT22;23316;50.718;7.328;2023-06-01T13:53:29;23.90;37.20
37456;DHT22;23316;50.718;7.328;2023-06-01T13:55:56;23.90;38.10
37456;DHT22;23316;50.718;7.328;2023-06-01T13:58:23;23.90;37.60
37456;DHT22;23316;50.718;7.328;2023-06-01T14:00:50;23.90;37.80
37456;DHT22;23316;50.718;7.328;2023-06-01T14:03:18;23.90;37.90
37456;DHT22;23316;50.718;7.328;2023-06-01T14:05:45;23.90;37.80
37456;DHT22;23316;50.718;7.328;2023-06-01T14:08:12;24.00;37.60
37456;DHT22;23316;50.718;7.328;2023-06-01T14:10:41;24.00;36.70
37456;DHT22;23316;50.718;7.328;2023-06-01T14:13:08;24.10;37.60
37456;DHT22;23316;50.718;7.328;2023-06-01T14:15:35;24.10;37.70
37456;DHT22;23316;50.718;7.328;2023-06-01T14:18:03;24.10;37.60
37456;DHT22;23316;50.718;7.328;2023-06-01T14:20:30;24.10;37.00
37456;DHT22;23316;50.718;7.328;2023-06-01T14:22:58;24.20;37.60
37456;DHT22;23316;50.718;7.328;2023-06-01T14:25:28;24.20;37.10
37456;DHT22;23316;50.718;7.328;2023-06-01T14:27:57;24.20;37.80
37456;DHT22;23316;50.718;7.328;2023-06-01T14:30:24;24.20;37.50
37456;DHT22;23316;50.718;7.328;2023-06-01T14:32:53;24.20;37.30
37456;DHT22;23316;50.718;7.328;2023-06-01T14:35:20;24.20;36.10
37456;DHT22;23316;50.718;7.328;2023-06-01T14:37:48;24.30;36.30
37456;DHT22;23316;50.718;7.328;2023-06-01T14:40:15;24.20;36.60
37456;DHT22;23316;50.718;7.328;2023-06-01T14:42:42;24.20;36.00
37456;DHT22;23316;50.718;7.328;2023-06-01T14:45:11;24.20;35.90
37456;DHT22;23316;50.718;7.328;2023-06-01T14:47:38;24.20;36.80
37456;DHT22;23316;50.718;7.328;2023-06-01T14:50:08;24.10;36.80
37456;DHT22;23316;50.718;7.328;2023-06-01T14:52:36;24.10;36.60
37456;DHT22;23316;50.718;7.328;2023-06-01T14:55:03;24.20;37.10
37456;DHT22;23316;50.718;7.328;2023-06-01T14:57:31;24.10;36.40
37456;DHT22;23316;50.718;7.328;2023-06-01T14:59:59;24.20;37.10
37456;DHT22;23316;50.718;7.328;2023-06-01T15:02:28;24.20;36.70
37456;DHT22;23316;50.718;7.328;2023-06-01T15:04:55;24.20;37.50
37456;DHT22;23316;50.718;7.328;2023-06-01T15:07:25;24.30;37.20
37456;DHT22;23316;50.718;7.328;2023-06-01T15:09:52;24.30;36.50
37456;DHT22;23316;50.718;7.328;2023-06-01T15:12:19;24.30;35.90
37456;DHT22;23316;50.718;7.328;2023-06-01T15:14:47;24.40;35.90
37456;DHT22;23316;50.718;7.328;2023-06-01T15:17:17;24.40;36.10
37456;DHT22;23316;50.718;7.328;2023-06-01T15:19:45;24.40;36.10
37456;DHT22;23316;50.718;7.328;2023-06-01T15:22:12;24.30;35.80
37456;DHT22;23316;50.718;7.328;2023-06-01T15:24:40;24.40;35.80
37456;DHT22;23316;50.718;7.328;2023-06-01T15:27:07;24.40;35.40
37456;DHT22;23316;50.718;7.328;2023-06-01T15:29:34;24.40;35.50
37456;DHT22;23316;50.718;7.328;2023-06-01T15:32:02;24.40;35.70
37456;DHT22;23316;50.718;7.328;2023-06-01T15:34:30;24.40;35.50
37456;DHT22;23316;50.718;7.328;2023-06-01T15:36:58;24.40;35.20
37456;DHT22;23316;50.718;7.328;2023-06-01T15:39:26;24.40;35.00
37456;DHT22;23316;50.718;7.328;2023-06-01T15:41:53;24.40;36.00
37456;DHT22;23316;50.718;7.328;2023-06-01T15:44:21;24.40;34.40
37456;DHT22;23316;50.718;7.328;2023-06-01T15:46:48;24.40;34.40
37456;DHT22;23316;50.718;7.328;2023-06-01T15:49:15;24.40;34.60
37456;DHT22;23316;50.718;7.328;2023-06-01T15:51:42;24.30;34.70
37456;DHT22;23316;50.718;7.328;2023-06-01T15:54:11;24.30;35.20
37456;DHT22;23316;50.718;7.328;2023-06-01T15:56:38;24.30;35.40
37456;DHT22;23316;50.718;7.328;2023-06-01T15:59:05;24.30;35.40
37456;DHT22;23316;50.718;7.328;2023-06-01T16:01:33;24.30;35.60
37456;DHT22;23316;50.718;7.328;2023-06-01T16:04:00;24.30;35.80
37456;DHT22;23316;50.718;7.328;2023-06-01T16:06:27;24.30;35.50
37456;DHT22;23316;50.718;7.328;2023-06-01T16:08:54;24.30;36.00